createdAt,value
2022-12-31T00:00:33.919Z,100234.66
2022-12-31T00:03:01.743Z,100239.97
2022-12-31T00:05:31.205Z,100236.25
2022-12-31T00:07:59.172Z,100237.78
2022-12-31T00:10:26.791Z,100240.16
2022-12-31T00:12:54.697Z,100222.97
2022-12-31T00:15:22.392Z,100232.97
2022-12-31T00:17:51.463Z,100228.44
2022-12-31T00:20:19.406Z,100240.91
2022-12-31T00:22:47.070Z,100244.34
2022-12-31T00:25:14.852Z,100242.50
2022-12-31T00:27:42.580Z,100240.63
2022-12-31T00:30:11.719Z,100251.22
2022-12-31T00:32:39.397Z,100259.97
2022-12-31T00:35:09.361Z,100243.00
2022-12-31T00:37:37.031Z,100248.28
2022-12-31T00:40:05.199Z,100253.59
2022-12-31T00:42:32.886Z,100256.25
2022-12-31T00:45:00.584Z,100245.63
2022-12-31T00:47:28.262Z,100256.25
2022-12-31T00:49:55.962Z,100263.41
2022-12-31T00:52:25.013Z,100261.06
2022-12-31T00:54:52.671Z,100257.31
2022-12-31T00:57:20.313Z,100253.09
2022-12-31T00:59:48.018Z,100259.47
2022-12-31T01:02:15.836Z,100264.03
2022-12-31T01:04:44.582Z,100253.69
2022-12-31T01:07:12.286Z,100259.31
2022-12-31T01:09:41.471Z,100248.53
2022-12-31T01:12:09.165Z,100250.72
2022-12-31T01:14:36.861Z,100247.59
2022-12-31T01:17:04.615Z,100252.09
2022-12-31T01:19:32.287Z,100255.06
2022-12-31T01:21:59.987Z,100261.94
2022-12-31T01:24:27.699Z,100258.78
2022-12-31T01:26:57.943Z,100262.56
2022-12-31T01:29:25.826Z,100254.88
2022-12-31T01:31:53.480Z,100245.38
2022-12-31T01:34:21.153Z,100257.06
2022-12-31T01:36:48.879Z,100260.81
2022-12-31T01:39:16.581Z,100261.88
2022-12-31T01:41:47.101Z,100259.56
2022-12-31T01:44:51.750Z,100265.94
2022-12-31T01:47:26.855Z,100269.69
2022-12-31T01:49:58.815Z,100268.09
2022-12-31T01:52:29.877Z,100255.16
2022-12-31T01:55:01.349Z,100269.50
2022-12-31T01:57:29.591Z,100271.34
2022-12-31T02:00:01.587Z,100271.66
2022-12-31T02:02:29.540Z,100281.47
2022-12-31T02:04:58.316Z,100280.69
2022-12-31T02:07:26.258Z,100291.63
2022-12-31T02:09:55.290Z,100282.13
2022-12-31T02:12:23.256Z,100271.50
2022-12-31T02:14:54.624Z,100255.59
2022-12-31T02:17:33.718Z,100245.28
2022-12-31T02:20:43.281Z,100249.03
2022-12-31T02:23:30.309Z,100254.63
2022-12-31T02:26:20.685Z,100254.94
2022-12-31T02:29:08.269Z,100251.81
2022-12-31T02:31:41.784Z,100242.00
2022-12-31T02:34:15.022Z,100221.88
2022-12-31T02:36:46.628Z,100215.78
2022-12-31T02:39:15.662Z,100221.41
2022-12-31T02:41:52.189Z,100220.94
2022-12-31T02:44:23.972Z,100233.41
2022-12-31T02:46:59.847Z,100226.84
2022-12-31T02:49:35.275Z,100230.88
2022-12-31T02:52:11.813Z,100250.50
2022-12-31T02:54:50.351Z,100242.38
2022-12-31T02:57:24.675Z,100259.34
2022-12-31T03:00:14.214Z,100265.75
2022-12-31T03:02:46.482Z,100276.63
2022-12-31T03:05:15.443Z,100281.16
2022-12-31T03:07:44.936Z,100286.00
2022-12-31T03:10:13.308Z,100292.34
2022-12-31T03:12:48.858Z,100294.22
2022-12-31T03:15:22.712Z,100286.59
2022-12-31T03:17:57.373Z,100292.97
2022-12-31T03:20:47.001Z,100281.41
2022-12-31T03:23:17.541Z,100294.16
2022-12-31T03:25:44.698Z,100288.41
2022-12-31T03:28:14.970Z,100287.13
2022-12-31T03:30:44.530Z,100289.31
2022-12-31T03:33:14.157Z,100299.09
2022-12-31T03:35:43.186Z,100279.28
2022-12-31T03:38:11.023Z,100290.19
2022-12-31T03:40:41.489Z,100303.72
2022-12-31T03:43:09.551Z,100284.72
2022-12-31T03:45:37.255Z,100282.38
2022-12-31T03:48:06.984Z,100295.88
2022-12-31T03:50:36.798Z,100273.16
2022-12-31T03:53:04.544Z,100284.03
2022-12-31T03:55:32.436Z,100276.41
2022-12-31T03:58:00.128Z,100281.53
2022-12-31T04:00:27.856Z,100278.88
2022-12-31T04:02:55.602Z,100282.13
2022-12-31T04:05:24.215Z,100273.69
2022-12-31T04:07:53.241Z,100264.16
2022-12-31T04:10:21.575Z,100266.34
2022-12-31T04:12:49.222Z,100268.97
2022-12-31T04:15:20.155Z,100265.56
2022-12-31T04:17:48.813Z,100257.13
2022-12-31T04:20:17.472Z,100257.44
2022-12-31T04:22:45.205Z,100246.38
2022-12-31T04:25:14.520Z,100243.22
2022-12-31T04:27:44.052Z,100234.03
2022-12-31T04:30:13.212Z,100236.97
2022-12-31T04:32:41.084Z,100239.13
2022-12-31T04:35:10.502Z,100245.50
2022-12-31T04:37:38.330Z,100243.94
2022-12-31T04:40:07.235Z,100259.34
2022-12-31T04:42:36.659Z,100253.25
2022-12-31T04:45:05.356Z,100252.78
2022-12-31T04:47:33.125Z,100255.44
2022-12-31T04:50:00.878Z,100258.84
2022-12-31T04:52:28.499Z,100258.84
2022-12-31T04:54:56.217Z,100252.47
2022-12-31T04:57:23.866Z,100251.69
2022-12-31T04:59:52.894Z,100255.91
2022-12-31T05:02:20.647Z,100262.28
2022-12-31T05:04:49.034Z,100256.69
2022-12-31T05:07:16.703Z,100257.19
2022-12-31T05:09:44.395Z,100260.88
2022-12-31T05:12:12.038Z,100282.53
2022-12-31T05:14:39.717Z,100259.81
2022-12-31T05:17:08.758Z,100250.78
2022-12-31T05:19:36.398Z,100274.59
2022-12-31T05:22:21.422Z,100258.44
2022-12-31T05:24:52.064Z,100253.63
2022-12-31T05:27:19.825Z,100255.22
2022-12-31T05:29:47.581Z,100264.38
2022-12-31T05:32:16.667Z,100256.97
2022-12-31T05:34:45.019Z,100261.34
2022-12-31T05:37:13.069Z,100272.59
2022-12-31T05:39:40.551Z,100285.72
2022-12-31T05:42:08.274Z,100284.34
2022-12-31T05:44:35.938Z,100282.16
2022-12-31T05:47:03.614Z,100274.44
2022-12-31T05:49:32.653Z,100283.31
2022-12-31T05:52:00.433Z,100272.13
2022-12-31T05:54:28.117Z,100270.66
2022-12-31T05:56:55.863Z,100269.22
2022-12-31T05:59:23.600Z,100277.38
2022-12-31T06:01:51.343Z,100269.59
2022-12-31T06:04:19.169Z,100280.06
2022-12-31T06:06:48.295Z,100276.03
2022-12-31T06:09:16.423Z,100268.88
2022-12-31T06:11:44.274Z,100261.72
2022-12-31T06:14:12.810Z,100261.41
2022-12-31T06:16:41.415Z,100275.59
2022-12-31T06:19:09.675Z,100276.09
2022-12-31T06:21:37.350Z,100267.06
2022-12-31T06:24:07.019Z,100267.84
2022-12-31T06:26:34.718Z,100281.56
2022-12-31T06:29:02.359Z,100276.28
2022-12-31T06:31:30.113Z,100278.59
2022-12-31T06:33:57.872Z,100274.56
2022-12-31T06:36:27.022Z,100290.19
2022-12-31T06:38:55.192Z,100290.66
2022-12-31T06:41:24.380Z,100293.47
2022-12-31T06:43:52.137Z,100305.81
2022-12-31T06:46:19.891Z,100307.28
2022-12-31T06:48:47.615Z,100304.03
2022-12-31T06:51:17.819Z,100304.97
2022-12-31T06:53:46.062Z,100305.44
2022-12-31T06:56:17.403Z,100300.81
2022-12-31T06:58:47.830Z,100307.22
2022-12-31T07:01:32.540Z,100303.66
2022-12-31T07:04:09.699Z,100290.94
2022-12-31T07:06:45.020Z,100307.66
2022-12-31T07:09:20.358Z,100284.44
2022-12-31T07:11:56.290Z,100292.41
2022-12-31T07:14:32.954Z,100291.16
2022-12-31T07:17:09.587Z,100289.00
2022-12-31T07:19:55.452Z,100292.91
2022-12-31T07:22:25.817Z,100291.81
2022-12-31T07:24:54.247Z,100292.47
2022-12-31T07:27:40.895Z,100288.88
2022-12-31T07:30:14.656Z,100281.22
2022-12-31T07:33:18.097Z,100293.56
2022-12-31T07:35:53.350Z,100308.72
2022-12-31T07:38:30.627Z,100306.56
2022-12-31T07:41:09.942Z,100312.63
2022-12-31T07:43:49.719Z,100308.75
2022-12-31T07:46:27.178Z,100320.63
2022-12-31T07:48:55.595Z,100322.63
2022-12-31T07:51:23.925Z,100316.25
2022-12-31T07:53:51.684Z,100303.91
2022-12-31T07:56:19.519Z,100328.13
2022-12-31T07:59:00.142Z,100320.63
2022-12-31T08:01:38.055Z,100322.19
2022-12-31T08:04:10.760Z,100329.84
2022-12-31T08:06:47.303Z,100320.78
2022-12-31T08:09:29.164Z,100334.53
2022-12-31T08:11:58.969Z,100340.63
2022-12-31T08:14:27.970Z,100335.31
2022-12-31T08:16:58.263Z,100324.69
2022-12-31T08:19:28.680Z,100343.28
2022-12-31T08:22:16.100Z,100324.69
2022-12-31T08:24:56.880Z,100333.75
2022-12-31T08:27:32.774Z,100340.19
2022-12-31T08:30:06.342Z,100338.59
2022-12-31T08:32:42.145Z,100340.47
2022-12-31T08:35:24.112Z,100351.75
2022-12-31T08:38:02.614Z,100369.53
2022-12-31T08:40:39.393Z,100388.13
2022-12-31T08:43:26.966Z,100385.00
2022-12-31T08:45:55.354Z,100394.06
2022-12-31T08:48:30.876Z,100395.47
2022-12-31T08:50:59.379Z,100402.63
2022-12-31T08:53:27.688Z,100412.78
2022-12-31T08:56:01.103Z,100428.25
2022-12-31T08:58:40.226Z,100422.47
2022-12-31T09:01:09.507Z,100434.50
2022-12-31T09:03:55.729Z,100445.44
2022-12-31T09:06:30.355Z,100439.03
2022-12-31T09:09:07.291Z,100439.03
2022-12-31T09:11:55.494Z,100447.31
2022-12-31T09:14:30.661Z,100454.16
2022-12-31T09:17:04.239Z,100451.84
2022-12-31T09:19:33.358Z,100453.88
2022-12-31T09:22:01.428Z,100459.34
2022-12-31T09:24:29.468Z,100460.31
2022-12-31T09:27:06.997Z,100468.13
2022-12-31T09:29:55.054Z,100464.25
2022-12-31T09:32:32.240Z,100455.34
2022-12-31T09:35:11.694Z,100460.19
2022-12-31T09:37:46.475Z,100460.38
2022-12-31T09:40:50.156Z,100458.97
2022-12-31T09:44:00.701Z,100460.22
2022-12-31T09:47:12.270Z,100464.63
2022-12-31T09:50:16.085Z,100470.41
2022-12-31T09:52:54.421Z,100477.47
2022-12-31T09:55:32.754Z,100468.09
2022-12-31T09:58:13.323Z,100473.56
2022-12-31T10:00:45.214Z,100476.41
2022-12-31T10:03:29.275Z,100470.75
2022-12-31T10:06:12.724Z,100478.41
2022-12-31T10:08:53.045Z,100478.72
2022-12-31T10:11:30.353Z,100485.16
2022-12-31T10:14:17.627Z,100474.84
2022-12-31T10:17:00.600Z,100474.19
2022-12-31T10:20:22.093Z,100474.97
2022-12-31T10:23:08.980Z,100479.53
2022-12-31T10:26:00.016Z,100504.56
2022-12-31T10:28:32.705Z,100467.78
2022-12-31T10:31:13.926Z,100485.00
2022-12-31T10:33:46.133Z,100491.22
2022-12-31T10:36:21.645Z,100479.63
2022-12-31T10:39:08.824Z,100490.75
2022-12-31T10:42:11.139Z,100488.56
2022-12-31T10:45:20.148Z,100488.09
2022-12-31T10:48:28.797Z,100489.66
2022-12-31T10:51:37.405Z,100491.69
2022-12-31T10:54:30.357Z,100473.81
2022-12-31T10:57:36.594Z,100487.00
2022-12-31T11:00:16.884Z,100486.53
2022-12-31T11:03:29.644Z,100473.53
2022-12-31T11:06:52.579Z,100491.88
2022-12-31T11:09:48.481Z,100493.88
2022-12-31T11:12:36.682Z,100492.31
2022-12-31T11:15:36.898Z,100499.06
2022-12-31T11:18:14.177Z,100499.06
2022-12-31T11:21:00.895Z,100482.63
2022-12-31T11:23:40.373Z,100478.38
2022-12-31T11:26:18.250Z,100468.69
2022-12-31T11:29:15.746Z,100465.91
2022-12-31T11:32:00.373Z,100479.50
2022-12-31T11:34:50.971Z,100488.91
2022-12-31T11:37:37.885Z,100483.28
2022-12-31T11:40:37.654Z,100495.47
2022-12-31T11:43:20.923Z,100480.91
2022-12-31T11:46:20.541Z,100484.81
2022-12-31T11:49:01.492Z,100484.66
2022-12-31T11:51:50.149Z,100491.56
2022-12-31T11:54:51.931Z,100496.72
2022-12-31T11:57:26.513Z,100497.50
2022-12-31T11:59:59.909Z,100488.09
2022-12-31T12:02:31.146Z,100484.00
2022-12-31T12:05:08.500Z,100483.38
2022-12-31T12:07:38.629Z,100476.31
2022-12-31T12:10:18.694Z,100475.03
2022-12-31T12:12:46.419Z,100486.16
2022-12-31T12:15:22.065Z,100481.28
2022-12-31T12:17:57.024Z,100490.53
2022-12-31T12:20:33.183Z,100471.09
2022-12-31T12:23:02.760Z,100470.19
2022-12-31T12:25:39.432Z,100481.94
2022-12-31T12:28:29.496Z,100458.44
2022-12-31T12:31:01.820Z,100489.16
2022-12-31T12:33:31.620Z,100490.84
2022-12-31T12:36:10.595Z,100480.03
2022-12-31T12:38:38.645Z,100476.75
2022-12-31T12:41:08.630Z,100479.09
2022-12-31T12:43:38.334Z,100469.56
2022-12-31T12:46:19.453Z,100467.00
2022-12-31T12:48:49.515Z,100462.66
2022-12-31T12:51:31.932Z,100480.50
2022-12-31T12:54:08.595Z,100493.81
2022-12-31T12:56:43.322Z,100482.41
2022-12-31T12:59:43.992Z,100485.06
2022-12-31T13:02:32.697Z,100500.38
2022-12-31T13:05:15.763Z,100519.69
2022-12-31T13:07:58.158Z,100494.59
2022-12-31T13:10:41.363Z,100501.50
2022-12-31T13:13:24.569Z,100508.22
2022-12-31T13:16:01.007Z,100498.34
2022-12-31T13:18:42.841Z,100492.22
2022-12-31T13:21:28.991Z,100496.63
2022-12-31T13:24:03.108Z,100492.59
2022-12-31T13:26:37.705Z,100512.03
2022-12-31T13:29:07.013Z,100508.91
2022-12-31T13:31:37.427Z,100498.88
2022-12-31T13:34:12.821Z,100529.28
2022-12-31T13:36:44.103Z,100498.25
2022-12-31T13:39:17.236Z,100519.72
2022-12-31T13:41:50.535Z,100515.81
2022-12-31T13:44:26.016Z,100515.66
2022-12-31T13:46:58.686Z,100502.34
2022-12-31T13:49:32.709Z,100520.50
2022-12-31T13:52:04.822Z,100507.19
2022-12-31T13:54:39.794Z,100521.59
2022-12-31T13:57:18.071Z,100511.44
2022-12-31T13:59:52.723Z,100562.94
2022-12-31T14:02:29.899Z,100526.78
2022-12-31T14:05:04.200Z,100513.94
2022-12-31T14:07:45.185Z,100520.38
2022-12-31T14:10:14.987Z,100511.75
2022-12-31T14:12:50.124Z,100508.78
2022-12-31T14:15:24.944Z,100505.16
2022-12-31T14:18:03.017Z,100508.47
2022-12-31T14:20:43.803Z,100511.25
2022-12-31T14:23:21.270Z,100516.56
2022-12-31T14:25:53.052Z,100541.31
2022-12-31T14:28:26.554Z,100517.38
2022-12-31T14:31:01.495Z,100544.16
2022-12-31T14:33:51.113Z,100551.50
2022-12-31T14:36:37.015Z,100559.19
2022-12-31T14:39:24.583Z,100562.16
2022-12-31T14:42:02.036Z,100558.69
2022-12-31T14:44:47.244Z,100557.31
2022-12-31T14:47:25.159Z,100541.97
2022-12-31T14:50:00.965Z,100534.44
2022-12-31T14:52:33.672Z,100543.38
2022-12-31T14:55:04.036Z,100557.78
2022-12-31T14:58:09.634Z,100555.44
2022-12-31T15:00:32.095Z,100564.66
2022-12-31T15:03:02.644Z,100563.72
2022-12-31T15:05:32.862Z,100548.84
2022-12-31T15:08:18.016Z,100562.78
2022-12-31T15:10:53.915Z,100566.84
2022-12-31T15:13:37.917Z,100573.41
2022-12-31T15:16:27.725Z,100568.72
2022-12-31T15:19:16.131Z,100568.56
2022-12-31T15:21:58.722Z,100546.34
2022-12-31T15:24:30.720Z,100540.88
2022-12-31T15:27:01.681Z,100543.22
2022-12-31T15:29:32.708Z,100541.34
2022-12-31T15:32:03.864Z,100546.38
2022-12-31T15:34:34.838Z,100542.59
2022-12-31T15:37:05.025Z,100524.28
2022-12-31T15:39:44.717Z,100524.25
2022-12-31T15:42:49.438Z,100528.19
2022-12-31T15:45:24.202Z,100522.38
2022-12-31T15:47:57.308Z,100527.06
2022-12-31T15:50:26.521Z,100532.09
2022-12-31T15:52:56.151Z,100537.72
2022-12-31T15:55:30.157Z,100543.81
2022-12-31T15:58:02.431Z,100539.88
2022-12-31T16:00:44.696Z,100563.88
2022-12-31T16:03:22.584Z,100525.94
2022-12-31T16:05:50.597Z,100540.81
2022-12-31T16:08:21.193Z,100534.88
2022-12-31T16:10:50.560Z,100529.22
2022-12-31T16:13:23.638Z,100539.88
2022-12-31T16:15:53.844Z,100541.91
2022-12-31T16:18:23.273Z,100531.25
2022-12-31T16:20:51.929Z,100538.94
2022-12-31T16:23:28.083Z,100533.13
2022-12-31T16:26:01.652Z,100524.97
2022-12-31T16:28:31.588Z,100516.63
2022-12-31T16:31:02.671Z,100512.22
2022-12-31T16:33:32.328Z,100521.81
2022-12-31T16:36:02.635Z,100512.69
2022-12-31T16:38:34.907Z,100522.59
2022-12-31T16:41:18.484Z,100517.94
2022-12-31T16:43:47.427Z,100519.63
2022-12-31T16:46:19.858Z,100506.31
2022-12-31T16:48:49.617Z,100500.03
2022-12-31T16:51:20.878Z,100532.63
2022-12-31T16:53:49.790Z,100518.53
2022-12-31T16:56:26.415Z,100523.69
2022-12-31T16:59:01.065Z,100522.59
2022-12-31T17:01:32.961Z,100509.09
2022-12-31T17:04:04.575Z,100516.31
2022-12-31T17:06:33.647Z,100497.22
2022-12-31T17:09:20.967Z,100501.78
2022-12-31T17:11:54.224Z,100520.09
2022-12-31T17:14:24.588Z,100511.47
2022-12-31T17:17:02.784Z,100518.38
2022-12-31T17:19:42.784Z,100506.63
2022-12-31T17:22:17.643Z,100540.00
2022-12-31T17:24:48.837Z,100515.06
2022-12-31T17:27:18.557Z,100505.34
2022-12-31T17:29:46.271Z,100501.28
2022-12-31T17:32:29.937Z,100499.28
2022-12-31T17:34:57.738Z,100504.28
2022-12-31T17:37:28.577Z,100501.00
2022-12-31T17:40:24.580Z,100495.97
2022-12-31T17:42:50.577Z,100497.06
2022-12-31T17:45:21.853Z,100493.00
2022-12-31T17:47:53.807Z,100495.97
2022-12-31T17:50:23.687Z,100507.06
2022-12-31T17:52:53.459Z,100506.78
2022-12-31T17:55:21.315Z,100506.78
2022-12-31T17:57:53.663Z,100522.88
2022-12-31T18:00:23.961Z,100514.09
2022-12-31T18:02:51.968Z,100511.59
2022-12-31T18:05:20.390Z,100515.69
2022-12-31T18:07:48.394Z,100519.25
2022-12-31T18:10:18.915Z,100520.22
2022-12-31T18:12:48.864Z,100511.47
2022-12-31T18:15:19.755Z,100510.34
2022-12-31T18:17:47.570Z,100510.69
2022-12-31T18:20:15.586Z,100517.94
2022-12-31T18:22:45.060Z,100515.84
2022-12-31T18:25:17.201Z,100506.72
2022-12-31T18:27:44.909Z,100503.75
2022-12-31T18:30:13.491Z,100498.75
2022-12-31T18:32:43.256Z,100507.84
2022-12-31T18:35:40.336Z,100508.94
2022-12-31T18:38:03.763Z,100518.13
2022-12-31T18:40:32.585Z,100510.19
2022-12-31T18:43:04.980Z,100515.78
2022-12-31T18:45:33.106Z,100518.78
2022-12-31T18:48:02.199Z,100515.78
2022-12-31T18:50:29.972Z,100514.78
2022-12-31T18:52:57.655Z,100511.03
2022-12-31T18:55:27.676Z,100528.44
2022-12-31T18:57:55.368Z,100517.31
2022-12-31T19:00:23.325Z,100527.53
2022-12-31T19:02:51.032Z,100528.91
2022-12-31T19:05:28.694Z,100529.06
2022-12-31T19:07:57.118Z,100541.13
2022-12-31T19:10:25.608Z,100536.09
2022-12-31T19:12:53.813Z,100542.50
2022-12-31T19:15:25.643Z,100548.47
2022-12-31T19:17:53.534Z,100536.09
2022-12-31T19:20:21.056Z,100550.84
2022-12-31T19:22:50.175Z,100545.31
2022-12-31T19:25:22.762Z,100539.66
2022-12-31T19:27:50.822Z,100548.00
2022-12-31T19:30:22.950Z,100541.09
2022-12-31T19:32:50.843Z,100542.50
2022-12-31T19:35:18.706Z,100535.94
2022-12-31T19:37:47.972Z,100533.41
2022-12-31T19:40:19.743Z,100533.31
2022-12-31T19:42:47.389Z,100537.06
2022-12-31T19:45:17.012Z,100539.88
2022-12-31T19:47:45.609Z,100531.06
2022-12-31T19:50:15.485Z,100557.59
2022-12-31T19:52:44.232Z,100546.47
2022-12-31T19:55:14.858Z,100564.69
2022-12-31T19:57:44.014Z,100564.19
2022-12-31T20:00:14.288Z,100557.44
2022-12-31T20:02:42.800Z,100545.22
2022-12-31T20:05:12.197Z,100540.63
2022-12-31T20:07:39.909Z,100561.63
2022-12-31T20:10:08.761Z,100562.75
2022-12-31T20:12:42.238Z,100558.50
2022-12-31T20:15:13.370Z,100585.78
2022-12-31T20:17:41.126Z,100551.13
2022-12-31T20:20:09.617Z,100556.16
2022-12-31T20:22:37.345Z,100557.88
2022-12-31T20:25:05.776Z,100579.03
2022-12-31T20:27:33.551Z,100569.78
2022-12-31T20:30:01.367Z,100579.03
2022-12-31T20:32:30.268Z,100568.84
2022-12-31T20:34:57.960Z,100561.00
2022-12-31T20:37:25.684Z,100573.53
2022-12-31T20:39:53.385Z,100560.34
2022-12-31T20:42:21.037Z,100556.56
2022-12-31T20:44:48.754Z,100568.81
2022-12-31T20:47:16.426Z,100572.56
2022-12-31T20:50:10.261Z,100576.31
2022-12-31T20:52:33.680Z,100576.63
2022-12-31T20:55:01.387Z,100574.59
2022-12-31T20:57:33.485Z,100578.84
2022-12-31T21:00:01.919Z,100594.00
2022-12-31T21:02:40.717Z,100572.22
2022-12-31T21:05:11.885Z,100559.34
2022-12-31T21:07:39.827Z,100581.91
2022-12-31T21:10:08.319Z,100581.41
2022-12-31T21:12:44.295Z,100587.19
2022-12-31T21:15:13.007Z,100584.22
2022-12-31T21:17:40.741Z,100597.56
2022-12-31T21:20:09.735Z,100586.72
2022-12-31T21:22:38.819Z,100584.34
2022-12-31T21:25:07.195Z,100579.69
2022-12-31T21:27:36.834Z,100591.91
2022-12-31T21:30:20.572Z,100593.47
2022-12-31T21:32:48.637Z,100632.22
2022-12-31T21:35:43.397Z,100608.53
2022-12-31T21:38:07.373Z,100615.38
2022-12-31T21:40:35.336Z,100610.38
2022-12-31T21:43:03.110Z,100632.81
2022-12-31T21:45:30.798Z,100633.78
2022-12-31T21:48:17.755Z,100638.19
2022-12-31T21:50:48.414Z,100612.03
2022-12-31T21:53:24.010Z,100627.13
2022-12-31T21:56:14.412Z,100627.75
2022-12-31T21:58:43.492Z,100620.50
2022-12-31T22:01:34.435Z,100628.63
2022-12-31T22:04:02.185Z,100620.63
2022-12-31T22:06:30.028Z,100616.88
2022-12-31T22:08:58.861Z,100638.81
2022-12-31T22:11:28.624Z,100638.66
2022-12-31T22:13:56.706Z,100635.47
2022-12-31T22:16:24.459Z,100620.59
2022-12-31T22:18:52.180Z,100631.25
2022-12-31T22:21:21.645Z,100653.41
2022-12-31T22:23:52.194Z,100615.44
2022-12-31T22:26:23.496Z,100637.88
2022-12-31T22:28:52.299Z,100624.69
2022-12-31T22:31:22.747Z,100618.22
2022-12-31T22:33:50.535Z,100633.31
2022-12-31T22:36:19.938Z,100630.63
2022-12-31T22:38:48.164Z,100629.06
2022-12-31T22:41:17.547Z,100622.63
2022-12-31T22:43:48.247Z,100635.47
2022-12-31T22:46:17.507Z,100639.09
2022-12-31T22:48:45.727Z,100669.19
2022-12-31T22:51:14.534Z,100641.59
2022-12-31T22:53:43.576Z,100638.44
2022-12-31T22:56:13.303Z,100651.13
2022-12-31T22:58:41.032Z,100645.34
2022-12-31T23:01:18.118Z,100647.22
2022-12-31T23:03:46.154Z,100639.09
2022-12-31T23:06:14.533Z,100642.66
2022-12-31T23:09:02.349Z,100645.66
2022-12-31T23:11:29.068Z,100649.09
2022-12-31T23:14:14.213Z,100669.97
2022-12-31T23:17:00.783Z,100651.63
2022-12-31T23:20:05.789Z,100669.84
2022-12-31T23:22:51.153Z,100721.47
2022-12-31T23:25:19.116Z,100680.81
2022-12-31T23:27:46.801Z,100687.69
2022-12-31T23:30:14.845Z,100670.78
2022-12-31T23:32:43.914Z,100695.41
2022-12-31T23:35:11.694Z,100691.75
2022-12-31T23:37:39.415Z,100676.53
2022-12-31T23:40:08.561Z,100681.25
2022-12-31T23:42:36.288Z,100672.31
2022-12-31T23:45:04.141Z,100690.53
2022-12-31T23:47:31.672Z,100677.03
2022-12-31T23:50:00.724Z,100681.09
2022-12-31T23:52:28.472Z,100686.94
2022-12-31T23:54:56.181Z,100703.84
2022-12-31T23:57:23.930Z,100695.53
2022-12-31T23:59:51.617Z,100700.72
